SVMI/CCS METAR and TAF weather

Enter ICAO airport designator
Station Type Date Time Source
SVMI METAR 2020/12/05 05:02 UTC NOAA

SVMI 050502Z AUTO 08003KT NCD ///// Q1014


Station Type Date Time Source
SVMI Decoded METAR 2020/12/05 05:02 UTC NOAA

Caracas / Maiquetia Aerop. Intl. Simon Bolivar, Venezuela (SVMI) 10-36N 066-59W 48M
Dec 05, 2020 - 12:02 AM EST / 2020.12.05 0502 UTC
Wind: from the E (080 degrees) at 3 MPH (3 KT):0
Pressure (altimeter): 29.94 in. Hg (1014 hPa)
ob: SVMI 050502Z AUTO 08003KT NCD ///// Q1014
cycle: 5

Station Type Date Time Source
SVMI TAF 2020/12/05 12:14 UTC NOAA

TAF SVMI 050400Z 0512/0612 11003KT 9999 SCT016 TX32/0518Z TN25/0507Z
BECMG 0512/0516 00000KT 9999 BKN016

Example: see airport list